For quick login in and fast entrance.
M’enregistrer FAQ Connexion 
Poster un nouveau sujet Répondre au sujet  [ 7 messages ] 

Jeu 21 Nov 2019 23:02

 Un 737 Turkish Airlines se pose en urgence, Odessa, Ukraine
MessagePosté: Jeu 21 Nov 2019 23:02 
Hors ligne
Gonfleur d'Hélice
Gonfleur d'Hélice
Avatar de l’utilisateur

Inscription: Lun 08 Juin 2009 18:35
Localisation: HKG/CDG
Pas beaucoup d'infos pour le moment, le vol TK467 a effectué un atterrissage d'urgence sur l'aéroport d'Odessa en Ukraine ce soir. Il semblerait qu'il ait tenté un 1er atterrissage quelques instants plus tôt.
Le vol était opéré en 737-800, TC-JGZ.

https://www.airporthaber.com/havacilik-haberleri/thy-ucagi-yurekleri-agizlara-getirdi.html

Image

Image

Image

Image

_________________
Un voyage en avion, c'est une manière laïque de croire au ciel et de s'en remettre à lui...


  
home Haut
 Profil  
Répondre en citant le message  
Aider le Site avec PayPal

Jeu 21 Nov 2019 23:17

 Re: Un 737 Turkish Airlines se pose en urgence, Odessa, Ukraine
MessagePosté: Jeu 21 Nov 2019 23:17 
Hors ligne
Amiral de l'Air
Avatar de l’utilisateur

Inscription: Mer 03 Juin 2009 15:15
Localisation: Près de Morlaix-Ploujean (LFRU)
Un Boeing 737-800 (TC-JGZ) Turkish Airlines sur le vol #TK467 d’Istanbul a subi un effacement du train avant lors d'un atterrissage sur la piste 16 par vent de travers à l’aéroport d’Odessa (UKOO), en Ukraine. Le 737 avait effectué un Go-Around précédemment.

UKOO 211900Z 09011MPS 060V130 9999 OVC018 02/M01 Q1030 R16/090060 NOSIG
1855Z: runway excursion
UKOO 211832Z 09011G17MPS 050V120 9999 -SN OVC017 02/M01 Q1030 R16/090060 NOSIG
UKOO 211830Z 09011MPS 050V110 9999 -SN OVC017 02/M01 Q1030 R16/090060 NOSIG
1829Z: aborted landing
UKOO 211800Z 09009G15MPS 9999 -SN OVC017 02/M01 Q1030 R16/090060 NOSIG

ASN.

Image

_________________
Image


  
home Haut
 Profil  
Répondre en citant le message  

Jeu 21 Nov 2019 23:25

 Re: Un 737 Turkish Airlines se pose en urgence, Odessa, Ukraine
MessagePosté: Jeu 21 Nov 2019 23:25 
Hors ligne
Gonfleur d'Hélice
Gonfleur d'Hélice
Avatar de l’utilisateur

Inscription: Lun 08 Juin 2009 18:35
Localisation: HKG/CDG

_________________
Un voyage en avion, c'est une manière laïque de croire au ciel et de s'en remettre à lui...


  
home Haut
 Profil  
Répondre en citant le message  

Jeu 21 Nov 2019 23:27

 Re: Un 737 Turkish Airlines se pose en urgence, Odessa, Ukraine
MessagePosté: Jeu 21 Nov 2019 23:27 
Hors ligne
Amiral de l'Air
Avatar de l’utilisateur

Inscription: Mer 03 Juin 2009 15:15
Localisation: Près de Morlaix-Ploujean (LFRU)
Le 737 s’est immobilisé sur le bord gauche de la piste environ 50 mètres après le marquage de fin de piste. L’évacuation a eu lieu par toboggan. Un certain nombre de passagers ont été blessés. (Jacdec)

_________________
Image


  
home Haut
 Profil  
Répondre en citant le message  

Jeu 21 Nov 2019 23:33

 Re: Un 737 Turkish Airlines se pose en urgence, Odessa, Ukraine
MessagePosté: Jeu 21 Nov 2019 23:33 
Hors ligne
Gonfleur d'Hélice
Gonfleur d'Hélice
Avatar de l’utilisateur

Inscription: Lun 08 Juin 2009 18:35
Localisation: HKG/CDG

_________________
Un voyage en avion, c'est une manière laïque de croire au ciel et de s'en remettre à lui...


  
home Haut
 Profil  
Répondre en citant le message  

Ven 22 Nov 2019 00:08

 Re: Un 737 Turkish Airlines se pose en urgence, Odessa, Ukraine
MessagePosté: Ven 22 Nov 2019 00:08 
Hors ligne
Pilote de Funiculaire
Pilote de Funiculaire
Avatar de l’utilisateur

Inscription: Mer 03 Juin 2009 19:09
Localisation: Région Parisienne et (surtout !) Drôme P¨rovençale
Le nez en bas, l'arrière en haut, sans doute la raison de ces blessures lors de l'évacuation... Ca semble effectivement descendre très vite le toboggan !


  
home Haut
 Profil  
Répondre en citant le message  

Lun 25 Nov 2019 22:23

 Re: Un 737 Turkish Airlines se pose en urgence, Odessa, Ukraine
MessagePosté: Lun 25 Nov 2019 22:23 
Hors ligne
Gonfleur d'Hélice
Gonfleur d'Hélice
Avatar de l’utilisateur

Inscription: Lun 08 Juin 2009 18:35
Localisation: HKG/CDG
L'avion semble être très endommagé!



Infos car pas précisés dans le début du sujet :

Citation:
Date: 21-NOV-2019
Time: 18:55 UTC
Type: Boeing 737-8F2 (WL)
Owner/operator: THY Turkish Airlines
Registration: TC-JGZ
C/n / msn: 35739/2654
Fatalities: Fatalities: 0 / Occupants: 136
Other fatalities: 0
Aircraft damage: Unknown
Location: Odessa (UKOO) - Ukraine
Phase: Landing
Nature: International Scheduled Passenger
Departure airport: Istanbul Airport (IST/LTFM)
Destination airport: Odessa-Central Airport (ODS/UKOO)

_________________
Un voyage en avion, c'est une manière laïque de croire au ciel et de s'en remettre à lui...


  
home Haut
 Profil  
Répondre en citant le message  
Afficher les messages postés depuis:  Trier par  
Poster un nouveau sujet Répondre au sujet  [ 7 messages ] 

Heures au format UTC + 1 heure [ Heure d’été ]


Qui est en ligne

Utilisateurs parcourant ce forum: Aucun utilisateur enregistré et 0 invités


Vous ne pouvez pas poster de nouveaux sujets
Vous ne pouvez pas répondre aux sujets
Vous ne pouvez pas éditer vos messages
Vous ne pouvez pas supprimer vos messages

Aller à:  
Flux RSS Flux RSS Liste des flux Liste des flux
0 Développé par phpBB® Forum Software © phpBB Group
Traduction par phpBB-fr.com
phpBB SEO